Time;durP1;ratioP1;P1;durP2;ratioP2;P2;SDS_P1;SDS_P2;PMS_P1;PMS_P2;Temp;Humidity;BMP_temperature;BMP_pressure;BME280_temperature;BME280_humidity;BME280_pressure;Samples;Min_cycle;Max_cycle;Signal;HPM_P1;HPM_P2
2021/05/10 00:01:42;;;;;;;2.55;2.25;;;;;;;19.57;57.61;100009.94;4761487;30;20096;-89
2021/05/10 00:04:08;;;;;;;2.15;1.95;;;;;;;19.58;57.58;100003.84;4755544;30;20044;-87
2021/05/10 00:06:35;;;;;;;2.22;1.95;;;;;;;19.57;57.86;100002.13;4757177;30;20031;-87
2021/05/10 00:09:03;;;;;;;2.88;2.20;;;;;;;19.58;57.75;100003.84;4727989;30;20040;-87
2021/05/10 00:11:29;;;;;;;2.60;1.92;;;;;;;19.58;57.50;99996.88;4772725;30;20032;-87
2021/05/10 00:13:55;;;;;;;2.45;2.10;;;;;;;19.59;57.59;99992.50;4757424;30;20130;-89
2021/05/10 00:49:32;;;;;;;4.05;2.10;;;;;;;19.57;57.71;99945.56;4789415;29;20132;-90
2021/05/10 01:33:12;;;;;;;4.20;1.70;;;;;;;19.57;57.91;99929.03;4710204;24;20062;-85
2021/05/10 01:35:40;;;;;;;2.42;1.60;;;;;;;19.57;58.34;99955.16;4759091;30;20039;-85
2021/05/10 01:44:50;;;;;;;2.05;1.60;;;;;;;19.58;57.92;99920.34;4796998;30;20452;-88
2021/05/10 01:47:15;;;;;;;1.80;1.50;;;;;;;19.57;57.97;99910.78;4777910;30;20043;-85
2021/05/10 01:50:07;;;;;;;1.70;1.50;;;;;;;19.57;58.03;99911.63;4763373;30;20042;-85
2021/05/10 01:52:32;;;;;;;2.50;1.70;;;;;;;19.55;58.00;99905.59;4782213;30;20057;-86
2021/05/10 01:54:58;;;;;;;2.33;1.50;;;;;;;19.56;57.99;99896.88;4763398;30;20027;-86
2021/05/10 02:31:06;;;;;;;2.20;1.50;;;;;;;19.55;58.25;99840.38;4124031;27;20134;-85
2021/05/10 02:33:34;;;;;;;2.38;1.65;;;;;;;19.54;58.13;99836.06;4758265;30;20027;-86
2021/05/10 02:36:00;;;;;;;2.15;1.40;;;;;;;19.53;58.19;99824.78;4772823;30;20027;-86
2021/05/10 02:38:26;;;;;;;1.83;1.50;;;;;;;19.53;58.25;99818.69;4743721;30;20131;-87
2021/05/10 02:40:52;;;;;;;1.70;1.35;;;;;;;19.54;58.49;99823.00;4761039;30;20100;-85
2021/05/10 02:43:20;;;;;;;1.70;1.40;;;;;;;19.53;58.26;99821.28;4759997;30;20035;-86
2021/05/10 03:25:46;;;;;;;2.08;1.45;;;;;;;19.50;58.26;99785.72;4807038;24;20138;-88
2021/05/10 03:28:12;;;;;;;1.35;1.20;;;;;;;19.49;58.08;99786.66;4762531;30;20079;-88
2021/05/10 03:30:37;;;;;;;2.05;1.50;;;;;;;19.50;57.92;99783.13;4776976;30;20443;-88
2021/05/10 03:33:03;;;;;;;1.40;1.20;;;;;;;19.50;58.08;99784.88;4747277;30;20110;-88
2021/05/10 03:35:28;;;;;;;1.40;1.15;;;;;;;19.48;58.28;99771.88;4776196;30;20031;-87
2021/05/10 03:37:54;;;;;;;2.50;1.42;;;;;;;19.50;58.29;99764.84;4776024;30;20050;-89
2021/05/10 04:51:46;;;;;;;1.42;1.30;;;;;;;19.50;57.78;99790.94;4802563;24;20067;-87
2021/05/10 04:54:13;;;;;;;1.60;1.20;;;;;;;19.48;57.66;99804.94;4742511;30;20392;-88
2021/05/10 04:56:38;;;;;;;1.05;0.93;;;;;;;19.51;57.75;99815.28;4728132;30;20553;-87
2021/05/10 04:59:04;;;;;;;1.30;1.00;;;;;;;19.50;57.86;99824.88;4743013;30;20035;-86
2021/05/10 05:01:29;;;;;;;1.50;1.23;;;;;;;19.51;57.73;99836.16;4726880;30;20024;-87
2021/05/10 05:03:55;;;;;;;1.65;1.00;;;;;;;19.51;57.74;99876.16;4741789;30;20040;-87
2021/05/10 05:06:20;;;;;;;1.25;1.00;;;;;;;19.51;57.82;99922.25;4756275;30;20388;-88
2021/05/10 05:08:46;;;;;;;1.92;1.25;;;;;;;19.50;57.96;99913.59;4733690;30;20032;-87
2021/05/10 05:11:11;;;;;;;1.40;1.05;;;;;;;19.51;57.66;99914.44;4763178;29;20052;-85
2021/05/10 05:13:37;;;;;;;3.15;1.30;;;;;;;19.50;57.29;99887.50;4730268;30;20044;-87
2021/05/10 05:16:02;;;;;;;1.30;1.20;;;;;;;19.49;57.65;99862.31;4758457;30;20365;-86
2021/05/10 05:18:27;;;;;;;1.55;1.15;;;;;;;19.49;57.72;99817.94;4759263;30;20032;-86
2021/05/10 05:20:53;;;;;;;1.77;0.95;;;;;;;19.49;57.79;99781.44;4744742;30;20036;-87
2021/05/10 05:23:25;;;;;;;1.60;1.38;;;;;;;19.48;57.79;99758.84;4743895;30;20066;-87
2021/05/10 05:25:58;;;;;;;1.42;1.00;;;;;;;19.49;57.60;99749.28;4759225;30;20036;-88
2021/05/10 05:28:24;;;;;;;6.73;2.50;;;;;;;19.55;57.91;99808.19;4744738;30;20048;-91
2021/05/10 05:30:49;;;;;;;8.85;3.38;;;;;;;19.60;57.89;99868.91;4777168;30;20031;-89
2021/05/10 05:33:15;;;;;;;8.40;3.58;;;;;;;19.64;57.67;99866.19;4744684;30;20101;-90
2021/05/10 05:35:41;;;;;;;11.15;3.42;;;;;;;19.67;57.45;99868.66;4744140;30;20040;-91
2021/05/10 05:38:09;;;;;;;5.82;3.30;;;;;;;19.69;57.33;99911.28;4758232;30;20118;-89
2021/05/10 05:40:35;;;;;;;11.73;3.35;;;;;;;19.70;57.45;99938.22;4758556;30;20318;-89
2021/05/10 05:43:00;;;;;;;11.23;3.70;;;;;;;19.69;57.69;99957.38;4774538;30;20039;-90
2021/05/10 05:45:26;;;;;;;9.40;3.30;;;;;;;19.67;57.59;99990.50;4758091;30;20044;-89
2021/05/10 05:47:51;;;;;;;15.13;3.13;;;;;;;19.66;57.71;100004.44;4744041;30;20102;-90
2021/05/10 05:50:17;;;;;;;8.93;3.28;;;;;;;19.66;57.49;100000.09;4758028;30;20542;-90
2021/05/10 05:52:42;;;;;;;9.73;3.00;;;;;;;19.65;57.51;99997.53;4743453;30;20047;-90
2021/05/10 05:55:09;;;;;;;9.63;2.60;;;;;;;19.65;57.66;100016.63;4758456;30;20392;-90
2021/05/10 05:57:34;;;;;;;8.45;3.25;;;;;;;19.66;57.39;100039.25;4757888;30;20042;-89
2021/05/10 06:00:02;;;;;;;7.97;2.90;;;;;;;19.67;57.48;100030.50;4743263;30;20040;-91
2021/05/10 06:02:27;;;;;;;11.07;3.20;;;;;;;19.67;57.65;100030.50;4757978;30;20039;-90
2021/05/10 06:04:53;;;;;;;5.28;2.78;;;;;;;19.68;57.18;100040.03;4758031;30;20035;-90
2021/05/10 06:07:18;;;;;;;6.07;2.67;;;;;;;19.69;57.61;100041.78;4757815;30;20040;-89
2021/05/10 06:09:43;;;;;;;5.05;2.67;;;;;;;19.69;57.81;100048.72;4759066;30;20032;-90
2021/05/10 06:12:12;;;;;;;4.97;2.50;;;;;;;19.65;57.55;100045.34;4764777;30;20418;-89
2021/05/10 06:14:37;;;;;;;5.65;2.42;;;;;;;19.70;57.17;100059.13;4767160;30;20074;-89
2021/05/10 06:17:03;;;;;;;6.00;2.42;;;;;;;19.79;57.09;100057.16;4758378;30;20056;-90
2021/05/10 06:19:29;;;;;;;5.90;2.55;;;;;;;19.81;57.07;100071.88;4743311;30;20074;-89
2021/05/10 06:21:55;;;;;;;5.15;2.30;;;;;;;19.77;57.18;100069.41;4743589;30;20039;-90
2021/05/10 06:24:21;;;;;;;7.75;2.75;;;;;;;19.75;57.20;100077.28;4743267;30;20097;-90
2021/05/10 06:26:48;;;;;;;6.57;2.40;;;;;;;19.75;57.05;100074.69;4757896;30;20043;-90
2021/05/10 06:29:13;;;;;;;4.25;2.42;;;;;;;19.78;57.30;100077.19;4743369;30;20081;-90
2021/05/10 06:31:39;;;;;;;7.93;2.40;;;;;;;19.77;57.47;100075.47;4757995;30;20024;-90
2021/05/10 06:34:05;;;;;;;4.57;2.53;;;;;;;19.75;57.25;100077.28;4758090;30;20480;-91
2021/05/10 06:36:31;;;;;;;5.28;2.10;;;;;;;19.76;57.34;100089.44;4758662;30;20028;-91
2021/05/10 06:38:56;;;;;;;4.85;2.15;;;;;;;19.73;57.16;100092.16;4761689;30;20039;-91
2021/05/10 06:41:22;;;;;;;5.28;1.98;;;;;;;19.70;57.41;100093.06;4769153;30;20024;-90
2021/05/10 06:43:47;;;;;;;5.43;2.40;;;;;;;19.70;57.28;100087.00;4767418;30;20027;-90
2021/05/10 06:46:13;;;;;;;4.55;2.30;;;;;;;19.74;57.31;100088.63;4769593;30;20031;-91
2021/05/10 06:48:38;;;;;;;4.28;2.22;;;;;;;19.72;57.25;100079.97;4740497;30;20369;-91
2021/05/10 06:51:10;;;;;;;4.78;2.20;;;;;;;19.77;56.98;100091.13;4751668;30;20622;-91
2021/05/10 06:53:35;;;;;;;4.50;2.30;;;;;;;19.90;56.86;100095.09;4753890;30;20089;-90
2021/05/10 06:56:00;;;;;;;5.28;2.35;;;;;;;20.00;56.28;100097.41;4743244;30;20435;-91
2021/05/10 06:58:28;;;;;;;5.38;2.08;;;;;;;19.90;56.85;100096.84;4743777;30;20119;-91
2021/05/10 07:00:55;;;;;;;4.53;2.05;;;;;;;19.84;56.95;100102.28;4757417;30;20039;-90
2021/05/10 07:03:20;;;;;;;4.53;2.28;;;;;;;19.82;57.07;100104.91;4757108;30;20043;-90
2021/05/10 07:05:47;;;;;;;5.53;2.40;;;;;;;19.77;56.91;100101.56;4757410;30;20028;-91
2021/05/10 07:08:15;;;;;;;4.18;2.13;;;;;;;19.73;56.99;100097.38;4757353;30;20039;-89
2021/05/10 07:10:46;;;;;;;4.20;1.77;;;;;;;19.72;57.20;100108.69;4757249;30;20043;-91
2021/05/10 07:13:11;;;;;;;4.47;2.08;;;;;;;19.72;57.14;100106.09;4757067;30;20027;-88
2021/05/10 07:15:37;;;;;;;3.35;1.80;;;;;;;19.72;57.36;100109.53;4742103;30;20093;-88
2021/05/10 07:18:11;;;;;;;3.78;2.25;;;;;;;19.71;57.07;100101.78;4756970;30;20503;-90
2021/05/10 07:20:38;;;;;;;3.90;2.03;;;;;;;19.69;57.26;100154.03;4756575;30;20193;-88
2021/05/10 07:23:06;;;;;;;4.63;1.90;;;;;;;19.67;57.21;100171.44;4756864;30;20036;-91
2021/05/10 07:25:32;;;;;;;5.18;1.73;;;;;;;19.69;57.17;100168.81;4757348;30;20047;-89
2021/05/10 07:27:58;;;;;;;4.47;1.92;;;;;;;19.69;57.28;100166.19;4742616;30;20480;-88
2021/05/10 07:30:23;;;;;;;5.22;1.95;;;;;;;19.69;57.12;100168.81;4766958;30;20032;-89
2021/05/10 07:32:49;;;;;;;3.50;1.60;;;;;;;19.70;57.13;100186.19;4763204;30;20031;-87
2021/05/10 07:35:14;;;;;;;4.10;1.70;;;;;;;19.69;56.83;100192.31;4743600;30;20476;-90
2021/05/10 07:37:40;;;;;;;3.28;1.77;;;;;;;19.70;56.92;100204.47;4743170;30;20483;-88
2021/05/10 07:40:07;;;;;;;4.63;1.88;;;;;;;19.70;57.04;100200.09;4742381;30;20031;-86
2021/05/10 07:42:32;;;;;;;2.35;1.60;;;;;;;19.69;56.85;100195.78;4756420;30;20024;-90
2021/05/10 07:45:01;;;;;;;3.10;1.50;;;;;;;19.67;57.18;100205.38;4756461;30;20388;-89
2021/05/10 07:47:29;;;;;;;4.78;1.63;;;;;;;19.69;56.70;100221.00;4741709;30;20118;-89
2021/05/10 07:49:55;;;;;;;2.35;1.50;;;;;;;19.70;57.12;100248.84;4727581;30;20062;-88
2021/05/10 07:52:20;;;;;;;4.85;1.80;;;;;;;19.70;56.86;100241.88;4756753;30;20028;-88
2021/05/10 07:54:46;;;;;;;3.13;1.75;;;;;;;19.71;56.58;100258.41;4756212;30;20063;-89
2021/05/10 07:57:11;;;;;;;2.45;1.45;;;;;;;19.74;56.69;100279.19;4741409;30;20044;-88
2021/05/10 07:59:37;;;;;;;4.13;1.42;;;;;;;19.72;56.48;100276.63;4726885;30;20078;-90
2021/05/10 08:02:03;;;;;;;3.30;1.67;;;;;;;19.77;56.54;100281.72;4741752;30;20047;-90
2021/05/10 08:04:28;;;;;;;4.97;1.70;;;;;;;19.79;56.42;100282.53;4741495;30;20042;-88
2021/05/10 08:06:54;;;;;;;6.03;1.90;;;;;;;19.82;56.50;100279.84;4741454;30;20506;-90
2021/05/10 08:09:23;;;;;;;2.55;1.58;;;;;;;19.84;56.33;100291.09;4756118;30;20122;-91
2021/05/10 08:11:49;;;;;;;2.55;1.45;;;;;;;19.89;56.01;100283.16;4756084;30;20030;-89
2021/05/10 08:14:16;;;;;;;3.15;1.90;;;;;;;19.99;55.93;100302.88;4755760;30;20031;-89
2021/05/10 08:16:41;;;;;;;2.72;1.58;;;;;;;19.99;55.81;100299.41;4741311;30;20040;-90
2021/05/10 08:19:07;;;;;;;3.45;1.77;;;;;;;19.94;56.09;100292.53;4741375;30;20119;-90
2021/05/10 08:21:32;;;;;;;3.10;1.65;;;;;;;19.91;56.21;100300.47;4755708;30;20036;-89
2021/05/10 08:23:57;;;;;;;1.85;1.40;;;;;;;19.86;56.40;100299.75;4755857;30;20027;-90
2021/05/10 08:26:23;;;;;;;2.22;1.50;;;;;;;19.84;56.44;100296.34;4741739;30;20039;-90
2021/05/10 08:28:48;;;;;;;3.42;1.58;;;;;;;19.93;56.34;100310.88;4756096;30;20028;-90
2021/05/10 08:31:14;;;;;;;2.30;1.50;;;;;;;19.95;56.02;100319.53;4755869;30;20031;-90
2021/05/10 08:33:39;;;;;;;2.45;1.23;;;;;;;19.94;56.09;100316.03;4740769;30;20092;-91
2021/05/10 08:36:05;;;;;;;2.33;1.42;;;;;;;19.97;55.83;100322.09;4741276;30;20120;-92
2021/05/10 08:38:30;;;;;;;2.00;1.20;;;;;;;20.00;55.82;100328.09;4755683;30;20035;-90
2021/05/10 08:40:56;;;;;;;2.15;1.27;;;;;;;20.16;55.36;100327.66;4755902;30;20123;-90
2021/05/10 08:43:23;;;;;;;2.58;1.40;;;;;;;20.16;55.24;100318.06;4755055;30;20105;-90
2021/05/10 08:45:54;;;;;;;3.83;1.30;;;;;;;20.14;55.50;100318.13;4755278;30;20487;-92
2021/05/10 08:48:21;;;;;;;3.78;1.50;;;;;;;20.14;55.56;100327.69;4755518;30;20038;-89
2021/05/10 08:50:47;;;;;;;1.77;1.33;;;;;;;20.03;55.85;100342.81;4755196;30;20066;-90
2021/05/10 08:53:13;;;;;;;2.30;1.30;;;;;;;19.99;55.95;100338.56;4756824;30;20028;-91
2021/05/10 08:55:40;;;;;;;2.35;1.30;;;;;;;20.00;56.20;100345.53;4754743;30;20035;-89
2021/05/10 08:58:07;;;;;;;2.13;1.35;;;;;;;19.94;55.98;100344.78;4755912;30;20062;-88
2021/05/10 09:00:33;;;;;;;3.08;1.20;;;;;;;19.94;55.94;100352.59;4740870;30;20093;-89
2021/05/10 09:20:17;;;;;;;2.15;1.20;;;;;;;20.37;54.96;100420.28;4690083;30;20038;-88
2021/05/10 09:23:08;;;;;;;;;;;;;;;;;;;;;
2021/05/10 09:29:40;;;;;;;;;;;;;;;;;;;;;
2021/05/10 09:43:13;;;;;;;3.50;1.17;;;;;;;20.47;54.58;100446.13;4716122;30;20076;-89
2021/05/10 09:46:22;;;;;;;1.90;1.17;;;;;;;20.35;54.83;100464.72;4647953;30;20095;-88
2021/05/10 09:48:47;;;;;;;3.03;1.17;;;;;;;20.33;54.96;100471.75;4676547;30;20050;-90
2021/05/10 09:51:15;;;;;;;1.70;1.20;;;;;;;20.33;54.96;100479.59;4740513;30;20515;-89
2021/05/10 09:53:43;;;;;;;3.13;1.27;;;;;;;20.28;54.87;100489.31;4758079;30;20388;-89
2021/05/10 09:56:32;;;;;;;2.20;0.88;;;;;;;20.28;55.13;100491.94;4764611;30;20065;-90
2021/05/10 09:59:05;;;;;;;2.13;1.20;;;;;;;20.32;55.07;100489.19;4760442;30;20131;-87
2021/05/10 10:01:45;;;;;;;2.17;1.25;;;;;;;20.30;55.01;100496.22;4784385;30;20036;-93
2021/05/10 10:04:12;;;;;;;2.72;1.30;;;;;;;20.45;54.67;100508.03;4763743;30;20036;-90
2021/05/10 10:06:38;;;;;;;2.00;1.27;;;;;;;20.47;54.48;100515.81;4761594;30;20574;-88
2021/05/10 10:09:05;;;;;;;3.65;1.38;;;;;;;20.50;54.32;100520.97;4764077;30;20036;-87
2021/05/10 10:11:31;;;;;;;2.13;1.20;;;;;;;20.47;54.43;100511.47;4778429;30;20043;-89
2021/05/10 10:13:59;;;;;;;1.98;1.30;;;;;;;20.48;54.40;100526.22;4761635;30;20479;-89
2021/05/10 10:16:26;;;;;;;2.30;1.05;;;;;;;20.48;54.44;100531.44;4763895;30;20632;-90
2021/05/10 10:18:52;;;;;;;2.40;1.40;;;;;;;20.41;54.43;100532.53;4749200;30;20108;-89
2021/05/10 10:52:17;;;;;;;;;;;;;;;;;;;;;
2021/05/10 10:58:23;;;;;;;1.92;0.93;;;;;;;20.43;54.48;100574.31;4692984;30;20507;-87
2021/05/10 11:01:19;;;;;;;1.50;0.98;;;;;;;20.44;54.65;100568.16;4776872;30;20036;-90
2021/05/10 11:04:17;;;;;;;;;;;;;;;;;;;;;
2021/05/10 11:07:40;;;;;;;2.10;1.10;;;;;;;20.43;54.43;100569.94;4768657;30;20452;-89
2021/05/10 11:11:06;;;;;;;;;;;;;;;;;;;;;
2021/05/10 11:21:13;;;;;;;1.10;0.93;;;;;;;20.55;54.27;100580.06;4701469;30;20571;-88
2021/05/10 11:37:53;;;;;;;1.17;0.77;;;;;;;20.39;54.58;100606.66;4682355;30;20046;-88
2021/05/10 12:28:39;;;;;;;1.63;0.80;;;;;;;20.37;54.38;100658.94;4615975;31;20469;-87
2021/05/10 12:31:05;;;;;;;1.42;0.93;;;;;;;20.33;54.66;100665.13;4665235;30;20131;-86
2021/05/10 12:33:34;;;;;;;1.80;0.80;;;;;;;20.31;54.82;100657.31;4769922;30;20036;-88
2021/05/10 12:36:04;;;;;;;1.30;0.80;;;;;;;20.34;54.74;100666.88;4769970;30;20031;-87
2021/05/10 12:38:32;;;;;;;1.17;0.80;;;;;;;20.28;54.67;100669.63;4770438;30;20043;-88
2021/05/10 12:40:58;;;;;;;1.35;0.77;;;;;;;20.29;54.70;100674.78;4769947;30;20032;-91
2021/05/10 12:43:25;;;;;;;1.42;0.77;;;;;;;20.28;54.55;100678.31;4769754;30;20073;-87
2021/05/10 12:45:56;;;;;;;4.95;1.08;;;;;;;20.29;54.56;100674.78;4770184;30;20035;-90
2021/05/10 12:48:24;;;;;;;3.10;1.00;;;;;;;20.23;54.49;100667.13;4770448;30;20076;-88
2021/05/10 12:50:54;;;;;;;2.05;1.00;;;;;;;20.19;54.02;100675.91;4769947;30;20480;-89
2021/05/10 12:53:33;;;;;;;1.75;0.90;;;;;;;20.14;54.34;100669.91;4777250;30;20071;-89
2021/05/10 12:56:07;;;;;;;3.28;1.00;;;;;;;20.20;54.16;100682.84;4787515;30;20130;-89
2021/05/10 12:58:38;;;;;;;3.58;1.13;;;;;;;20.30;53.11;100684.38;4787686;30;20399;-90
2021/05/10 13:01:29;;;;;;;3.22;1.02;;;;;;;20.34;53.93;100683.41;4788142;30;20031;-89
2021/05/10 13:04:00;;;;;;;2.35;1.00;;;;;;;20.34;53.42;100687.78;4788010;30;20118;-89
2021/05/10 13:06:33;;;;;;;4.35;1.40;;;;;;;20.31;53.32;100691.28;4789770;29;20436;-90
2021/05/10 13:09:01;;;;;;;2.30;1.17;;;;;;;20.29;53.84;100687.84;4789375;30;20438;-88
2021/05/10 13:11:55;;;;;;;3.00;1.10;;;;;;;20.35;53.58;100711.22;4789041;30;20031;-89
2021/05/10 13:14:44;;;;;;;2.58;1.10;;;;;;;20.35;53.71;100698.16;4788279;30;20047;-90
2021/05/10 13:17:31;;;;;;;6.85;1.50;;;;;;;20.39;53.69;100688.50;4776475;30;20043;-89
2021/05/10 13:31:06;;;;;;;3.63;1.00;;;;;;;20.41;53.93;100691.09;4788779;30;20063;-88
2021/05/10 13:36:43;;;;;;;2.40;1.17;;;;;;;20.43;53.88;100705.84;4790434;29;20046;-89
2021/05/10 13:39:11;;;;;;;1.80;1.10;;;;;;;20.40;53.71;100691.97;4772373;30;20051;-90
2021/05/10 13:41:46;;;;;;;2.22;1.10;;;;;;;20.38;53.87;100699.84;4792558;29;20118;-88
2021/05/10 13:44:14;;;;;;;2.35;1.00;;;;;;;20.32;54.22;100716.53;4791581;30;20046;-88
2021/05/10 13:46:40;;;;;;;3.20;1.20;;;;;;;20.33;54.15;100697.34;4791267;30;20403;-88
2021/05/10 13:49:07;;;;;;;2.85;1.10;;;;;;;20.39;53.75;100711.19;4790882;30;20119;-89
2021/05/10 13:51:36;;;;;;;3.33;1.20;;;;;;;20.38;53.70;100718.13;4791723;29;20039;-90
2021/05/10 13:54:02;;;;;;;2.13;1.05;;;;;;;20.36;53.76;100714.72;4791066;30;20051;-89
2021/05/10 13:56:28;;;;;;;2.08;0.93;;;;;;;20.37;53.78;100724.28;4775797;30;20047;-89
2021/05/10 13:58:55;;;;;;;2.85;1.10;;;;;;;20.40;53.83;100720.72;4791739;29;20054;-90
2021/05/10 14:01:20;;;;;;;3.90;1.10;;;;;;;20.36;53.54;100717.34;4761353;30;20250;-87
2021/05/10 14:03:46;;;;;;;3.67;1.15;;;;;;;20.34;53.59;100732.19;4790859;30;20049;-89
2021/05/10 14:06:12;;;;;;;4.53;1.40;;;;;;;20.33;53.40;100723.47;4791163;30;20032;-90
2021/05/10 14:08:38;;;;;;;3.47;1.40;;;;;;;20.30;53.16;100728.78;4790307;30;20031;-88
2021/05/10 14:11:05;;;;;;;3.20;1.00;;;;;;;20.30;53.18;100736.63;4790659;30;20127;-87
2021/05/10 14:41:41;;;;;;;;;;;;;;;;;;;;;
2021/05/10 15:02:55;;;;;;;;;;;;;;;;;;;;;
2021/05/10 15:13:01;;;;;;;;;;;;;;;;;;;;;
2021/05/10 15:19:24;;;;;;;;;;;;;;;;;;;;;
2021/05/10 15:25:45;;;;;;;11.45;1.40;;;;;;;20.40;50.55;100754.72;4657594;30;20574;-88
2021/05/10 15:29:02;;;;;;;;;;;;;;;;;;;;;
2021/05/10 15:35:15;;;;;;;5.80;1.73;;;;;;;20.38;50.78;100773.03;4653785;30;20169;-89
2021/05/10 15:37:57;;;;;;;8.68;1.70;;;;;;;20.36;50.65;100774.84;4680977;30;20116;-88
2021/05/10 16:05:39;;;;;;;5.40;1.48;;;;;;;20.33;51.00;100773.13;4604913;30;20531;-88
2021/05/10 16:15:12;;;;;;;5.05;1.30;;;;;;;20.37;51.55;100775.69;4637799;30;20051;-87
2021/05/10 16:25:07;;;;;;;;;;;;;;;;;;;;;
2021/05/10 16:31:39;;;;;;;4.72;1.05;;;;;;;20.46;51.71;100804.22;4656589;30;20062;-87
2021/05/10 16:34:16;;;;;;;3.92;1.20;;;;;;;20.45;51.79;100807.75;4716488;30;20033;-87
2021/05/10 16:37:15;;;;;;;;;;;;;;;;;;;;;
2021/05/10 16:43:30;;;;;;;;;;;;;;;;;;;;;
2021/05/10 16:46:52;;;;;;;;;;;;;;;;;;;;;
2021/05/10 16:49:53;;;;;;;;;;;;;;;;;;;;;
2021/05/10 16:56:27;;;;;;;2.28;1.10;;;;;;;20.46;52.53;100799.84;4781112;30;20038;-87
2021/05/10 16:59:28;;;;;;;2.70;1.08;;;;;;;20.50;52.80;100798.91;4762285;30;20046;-87
2021/05/10 17:02:24;;;;;;;;;;;;;;;;;;;;;
2021/05/10 17:04:49;;;;;;;3.85;1.40;;;;;;;20.57;53.42;100798.78;4771984;30;20028;-89
2021/05/10 17:07:15;;;;;;;4.75;1.48;;;;;;;20.58;53.51;100796.16;4756669;30;20070;-89
2021/05/10 17:09:40;;;;;;;4.07;1.30;;;;;;;20.61;53.51;100801.31;4742345;30;20458;-88
2021/05/10 17:12:06;;;;;;;4.18;1.40;;;;;;;20.63;53.27;100814.34;4746644;30;20031;-88
2021/05/10 17:14:31;;;;;;;3.08;1.30;;;;;;;20.60;52.96;100810.06;4766348;30;20035;-90
2021/05/10 17:16:57;;;;;;;3.88;1.35;;;;;;;20.60;53.09;100822.25;4765211;30;20032;-89
2021/05/10 17:19:23;;;;;;;3.72;1.23;;;;;;;20.58;53.10;100824.91;4753015;30;20061;-89
2021/05/10 17:21:48;;;;;;;2.85;1.05;;;;;;;20.60;53.04;100817.03;4748687;30;20528;-89
2021/05/10 17:24:13;;;;;;;4.65;1.30;;;;;;;20.59;53.00;100820.53;4761391;30;20036;-92
2021/05/10 17:26:39;;;;;;;2.97;1.20;;;;;;;20.57;52.92;100823.19;4747728;30;20043;-90
2021/05/10 17:29:05;;;;;;;3.22;1.20;;;;;;;20.57;52.79;100841.50;4764557;30;20043;-91
2021/05/10 17:31:30;;;;;;;5.20;1.30;;;;;;;20.56;52.79;100829.28;4767108;30;20436;-89
2021/05/10 17:33:56;;;;;;;3.80;1.20;;;;;;;20.59;52.79;100828.38;4765568;30;20020;-92
2021/05/10 17:36:21;;;;;;;3.03;1.00;;;;;;;20.60;52.86;100819.63;4750300;30;20038;-91
2021/05/10 17:38:47;;;;;;;3.17;1.13;;;;;;;20.59;52.76;100818.78;4746777;30;20040;-90
2021/05/10 17:41:14;;;;;;;7.60;2.10;;;;;;;20.60;53.46;100836.22;4760254;30;20032;-90
2021/05/10 17:43:40;;;;;;;8.38;2.58;;;;;;;20.61;54.65;100839.69;4759293;30;20042;-93
2021/05/10 17:46:07;;;;;;;12.10;3.13;;;;;;;20.60;57.01;100837.94;4759414;30;20031;-90
2021/05/10 17:48:32;;;;;;;12.15;2.70;;;;;;;20.61;57.46;100837.06;4760075;30;20031;-89
2021/05/10 17:50:58;;;;;;;12.57;2.28;;;;;;;20.64;56.92;100831.75;4744658;30;20108;-89
2021/05/10 17:53:23;;;;;;;6.70;1.75;;;;;;;20.60;56.11;100817.91;4745587;30;20044;-89
2021/05/10 17:55:48;;;;;;;6.60;1.70;;;;;;;20.59;55.43;100826.63;4745105;30;20082;-89
2021/05/10 17:58:14;;;;;;;7.47;1.80;;;;;;;20.58;55.16;100821.41;4759394;30;20052;-89
2021/05/10 18:00:41;;;;;;;6.60;1.60;;;;;;;20.54;55.08;100825.84;4744640;30;20035;-89
2021/05/10 18:03:12;;;;;;;7.88;1.88;;;;;;;20.52;55.05;100819.78;4744102;30;20093;-89
2021/05/10 18:05:39;;;;;;;6.85;1.80;;;;;;;20.50;55.11;100829.41;4744331;30;20060;-89
2021/05/10 18:08:05;;;;;;;8.63;1.73;;;;;;;20.50;55.40;100838.13;4759202;30;20376;-89
2021/05/10 18:10:31;;;;;;;4.72;1.63;;;;;;;20.50;55.33;100839.88;4743829;30;20056;-92
2021/05/10 18:12:57;;;;;;;6.03;1.45;;;;;;;20.49;55.42;100840.75;4743412;30;20038;-88
2021/05/10 18:15:22;;;;;;;4.68;1.50;;;;;;;20.47;55.26;100839.91;4744724;30;20115;-91
2021/05/10 18:17:48;;;;;;;7.90;1.40;;;;;;;20.44;55.24;100843.47;4743679;30;20031;-91
2021/05/10 18:20:16;;;;;;;4.18;1.55;;;;;;;20.44;55.12;100851.31;4758807;30;20028;-88
2021/05/10 18:22:42;;;;;;;5.55;1.70;;;;;;;20.42;55.22;100849.63;4759926;30;20469;-88
2021/05/10 18:25:08;;;;;;;4.70;1.27;;;;;;;20.40;55.28;100851.41;4766223;30;20036;-91
2021/05/10 18:27:34;;;;;;;6.00;1.50;;;;;;;20.39;55.03;100857.53;4767767;30;20338;-90
2021/05/10 18:30:00;;;;;;;8.68;1.70;;;;;;;20.39;55.06;100855.78;4745571;30;20036;-92
2021/05/10 18:32:25;;;;;;;4.22;1.30;;;;;;;20.36;55.24;100855.88;4735371;30;20113;-91
2021/05/10 18:34:53;;;;;;;4.25;1.30;;;;;;;20.33;55.17;100851.53;4731317;30;20035;-87
2021/05/10 18:37:35;;;;;;;5.32;1.50;;;;;;;20.32;55.10;100862.91;4746350;30;20046;-89
2021/05/10 18:40:01;;;;;;;5.78;1.48;;;;;;;20.31;55.05;100858.53;4758109;30;20032;-88
2021/05/10 18:42:29;;;;;;;6.47;1.38;;;;;;;20.33;55.05;100866.34;4775277;30;20518;-89
2021/05/10 18:44:55;;;;;;;4.55;1.45;;;;;;;20.30;55.22;100861.22;4744337;30;20076;-87
2021/05/10 18:47:24;;;;;;;8.05;1.40;;;;;;;20.30;55.25;100861.22;4774750;30;20143;-88
2021/05/10 18:49:54;;;;;;;3.92;1.38;;;;;;;20.28;55.30;100852.53;4773234;30;20024;-90
2021/05/10 18:52:23;;;;;;;2.05;1.15;;;;;;;20.25;55.13;100853.47;4757746;30;20074;-87
2021/05/10 18:54:48;;;;;;;4.38;1.38;;;;;;;20.26;55.19;100860.41;4757617;30;20392;-89
2021/05/10 18:57:13;;;;;;;4.28;1.33;;;;;;;20.23;55.10;100854.38;4761789;30;20067;-91
2021/05/10 18:59:39;;;;;;;3.80;1.38;;;;;;;20.23;55.37;100864.81;4790353;30;20027;-89
2021/05/10 19:02:04;;;;;;;3.63;1.30;;;;;;;20.20;55.55;100868.34;4759985;30;20488;-87
2021/05/10 19:04:31;;;;;;;4.43;1.17;;;;;;;20.20;55.20;100860.53;4791863;29;20475;-89
2021/05/10 19:06:56;;;;;;;4.65;1.30;;;;;;;20.18;55.24;100849.22;4790885;30;20451;-87
2021/05/10 19:09:22;;;;;;;3.88;1.40;;;;;;;20.17;55.20;100854.50;4790607;30;20042;-88
2021/05/10 19:11:47;;;;;;;3.95;1.30;;;;;;;20.19;55.25;100860.56;4775177;30;20039;-89
2021/05/10 19:14:13;;;;;;;2.88;1.23;;;;;;;20.16;55.32;100858.00;4775618;30;20070;-88
2021/05/10 19:16:41;;;;;;;6.55;1.48;;;;;;;20.17;55.39;100864.97;4776943;30;20050;-89
2021/05/10 19:19:08;;;;;;;4.60;1.40;;;;;;;20.14;55.42;100858.91;4793228;30;20035;-87
2021/05/10 19:21:34;;;;;;;3.45;1.25;;;;;;;20.15;55.25;100859.75;4792223;30;20456;-87
2021/05/10 19:23:59;;;;;;;9.50;1.70;;;;;;;20.15;55.82;100870.22;4791134;30;20060;-87
2021/05/10 19:26:27;;;;;;;13.38;1.95;;;;;;;20.18;56.19;100882.34;4789799;30;20099;-87
2021/05/10 19:28:53;;;;;;;9.93;1.80;;;;;;;20.16;56.48;100876.28;4760047;30;20426;-87
2021/05/10 19:31:19;;;;;;;7.10;1.52;;;;;;;20.20;56.72;100888.41;4789211;30;20537;-88
2021/05/10 19:33:47;;;;;;;7.47;1.70;;;;;;;20.20;57.02;100889.25;4759027;30;20070;-87
2021/05/10 19:36:13;;;;;;;7.32;1.60;;;;;;;20.16;56.62;100886.75;4774736;30;20552;-87
2021/05/10 19:38:39;;;;;;;5.65;1.48;;;;;;;20.17;56.77;100894.56;4774995;30;20415;-87
2021/05/10 19:41:04;;;;;;;5.75;1.60;;;;;;;20.14;56.56;100895.50;4759106;30;20031;-89
2021/05/10 19:43:30;;;;;;;9.63;1.50;;;;;;;20.16;56.85;100899.81;4789899;30;20035;-88
2021/05/10 20:10:06;;;;;;;3.10;1.27;;;;;;;20.11;56.63;100890.31;4763883;29;20039;-88
2021/05/10 20:27:10;;;;;;;;;;;;;;;;;;;;;
2021/05/10 20:37:13;;;;;;;;;;;;;;;;;;;;;
2021/05/10 20:39:51;;;;;;;3.28;1.20;;;;;;;20.06;56.62;100900.00;4769650;30;20402;-88
2021/05/10 20:42:40;;;;;;;5.32;1.30;;;;;;;20.08;56.56;100910.41;4742030;30;20028;-88
2021/05/10 20:45:09;;;;;;;5.13;1.10;;;;;;;20.05;56.65;100913.06;4729999;30;20071;-87
2021/05/10 20:48:01;;;;;;;2.30;0.98;;;;;;;20.06;56.34;100923.50;4754954;30;20496;-88
2021/05/10 20:50:59;;;;;;;3.38;1.25;;;;;;;20.06;56.29;100923.50;4755380;30;20451;-87
2021/05/10 20:53:47;;;;;;;2.28;1.15;;;;;;;20.05;56.66;100926.97;4744419;30;20107;-87
2021/05/10 20:59:47;;;;;;;2.17;1.05;;;;;;;20.06;56.32;100949.63;4759077;30;20044;-87
2021/05/10 21:02:39;;;;;;;1.70;0.80;;;;;;;20.06;56.26;100948.78;4727277;30;20437;-87
2021/05/10 21:08:42;;;;;;;2.80;1.10;;;;;;;20.04;56.32;100953.16;4764828;30;20050;-87